Search for airport 
image banner adimage banner adimage banner ad
image banner ad

CYQM - Greater Moncton Romeo Leblanc Intl

Located in Moncton, Canada

ICAO - CYQM, IATA - YQM

Data provided by Airmate  

General information

Coordinates: N46°6'58" W64°40'43"
Elevation is 232 feet MSL.
Magnetic variation is -18.2031° East
View others Airports in New Brunswick

Operational data

Special qualification required
Current time UTC:
Current local time:
Weather
METAR: CYQM 191300Z 23011G18KT 15SM FEW014 BKN030 07/05 A2954 RMK CU2SC5 SLP008
TAF: TAF CYQM 191138Z 1912/2012 22008KT P6SM SCT020 SCT060 TEMPO 1912/1915 BKN020 BKN060 FM191500 25015KT P6SM BKN025 BKN050 TEMPO 1918/2001 P6SM -SHRA BKN020 BKN040 FM200100 25010KT P6SM BKN020 RMK NXT FCST BY 191800Z
View NOTAMs / SUP AIP / TFR affecting this airport [VIEW]
Communications frequencies: [VIEW]

Runways:

RWY identifierQFULength (ft)Width (ft)SurfaceLDA (ft)
0642°10001200ASPH10001
24223°10001200ASPH10001
1187°8000200ASPH8000
29268°8000200ASPH8000

Airport contact information

Address: Moncton Canada

Other aviation service providers

Flight schools

Moncton Flight College

Moncton Flight College

Satellite view of CYQM